createdAt,value
2019-03-10T00:00:44.070Z,977.97
2019-03-10T00:01:43.985Z,977.99
2019-03-10T00:02:43.901Z,977.96
2019-03-10T00:03:43.816Z,978.06
2019-03-10T00:04:43.737Z,977.94
2019-03-10T00:05:43.660Z,977.98
2019-03-10T00:06:43.574Z,978.00
2019-03-10T00:07:43.491Z,977.94
2019-03-10T00:08:43.408Z,978.05
2019-03-10T00:09:43.324Z,978.00
2019-03-10T00:10:43.244Z,977.96
2019-03-10T00:11:43.159Z,978.02
2019-03-10T00:12:43.078Z,978.03
2019-03-10T00:13:42.996Z,978.01
2019-03-10T00:14:42.912Z,978.08
2019-03-10T00:15:42.835Z,978.08
2019-03-10T00:16:42.754Z,978.10
2019-03-10T00:17:42.665Z,978.08
2019-03-10T00:18:42.584Z,978.06
2019-03-10T00:19:42.500Z,978.09
2019-03-10T00:20:42.419Z,978.09
2019-03-10T00:21:42.344Z,978.02
2019-03-10T00:22:42.256Z,978.08
2019-03-10T00:23:42.173Z,978.04
2019-03-10T00:24:42.090Z,977.98
2019-03-10T00:25:42.003Z,978.03
2019-03-10T00:26:41.926Z,978.08
2019-03-10T00:27:41.839Z,978.09
2019-03-10T00:28:41.760Z,978.06
2019-03-10T00:29:41.674Z,978.01
2019-03-10T00:30:41.598Z,977.91
2019-03-10T00:31:41.514Z,978.00
2019-03-10T00:32:41.443Z,977.99
2019-03-10T00:33:41.345Z,977.89
2019-03-10T00:34:41.328Z,977.96
2019-03-10T00:35:41.186Z,977.89
2019-03-10T00:36:41.101Z,977.80
2019-03-10T00:37:41.022Z,977.89
2019-03-10T00:38:40.939Z,977.87
2019-03-10T00:39:40.856Z,977.88
2019-03-10T00:40:40.773Z,977.83
2019-03-10T00:41:40.693Z,977.78
2019-03-10T00:42:40.605Z,977.75
2019-03-10T00:43:40.526Z,977.76
2019-03-10T00:44:40.438Z,977.73
2019-03-10T00:45:40.363Z,977.71
2019-03-10T00:46:40.285Z,977.79
2019-03-10T00:47:40.195Z,977.76
2019-03-10T00:48:40.117Z,977.76
2019-03-10T00:49:40.032Z,977.75
2019-03-10T00:50:39.950Z,977.73
2019-03-10T00:51:39.868Z,977.77
2019-03-10T00:52:39.788Z,977.77
2019-03-10T00:53:39.702Z,977.71
2019-03-10T00:54:39.621Z,977.71
2019-03-10T00:55:39.536Z,977.67
2019-03-10T00:56:39.453Z,977.78
2019-03-10T00:57:39.372Z,977.69
2019-03-10T00:58:39.289Z,977.68
2019-03-10T00:59:39.204Z,977.69
2019-03-10T01:00:39.124Z,977.70
2019-03-10T01:01:39.045Z,977.70
2019-03-10T01:02:38.956Z,977.63
2019-03-10T01:03:38.878Z,977.60
2019-03-10T01:04:38.793Z,977.63
2019-03-10T01:05:38.708Z,977.62
2019-03-10T01:06:38.636Z,977.64
2019-03-10T01:07:38.552Z,977.61
2019-03-10T01:08:38.461Z,977.61
2019-03-10T01:09:38.384Z,977.57
2019-03-10T01:10:38.297Z,977.56
2019-03-10T01:11:38.217Z,977.55
2019-03-10T01:12:38.135Z,977.50
2019-03-10T01:13:38.054Z,977.47
2019-03-10T01:14:37.973Z,977.48
2019-03-10T01:15:37.894Z,977.47
2019-03-10T01:16:37.806Z,977.48
2019-03-10T01:17:37.724Z,977.47
2019-03-10T01:18:37.641Z,977.41
2019-03-10T01:19:37.559Z,977.39
2019-03-10T01:20:37.479Z,977.38
2019-03-10T01:21:37.390Z,977.35
2019-03-10T01:22:37.311Z,977.31
2019-03-10T01:23:37.228Z,977.33
2019-03-10T01:24:37.143Z,977.29
2019-03-10T01:25:37.064Z,977.29
2019-03-10T01:26:36.980Z,977.32
2019-03-10T01:27:36.896Z,977.32
2019-03-10T01:28:36.820Z,977.19
2019-03-10T01:29:36.731Z,977.27
2019-03-10T01:30:36.655Z,977.19
2019-03-10T01:31:36.570Z,977.26
2019-03-10T01:32:36.490Z,977.29
2019-03-10T01:33:36.406Z,977.24
2019-03-10T01:34:36.318Z,977.16
2019-03-10T01:35:36.240Z,977.20
2019-03-10T01:36:36.159Z,977.11
2019-03-10T01:37:36.077Z,977.15
2019-03-10T01:38:35.990Z,977.10
2019-03-10T01:39:35.908Z,977.06
2019-03-10T01:40:35.827Z,977.07
2019-03-10T01:41:35.748Z,977.09
2019-03-10T01:42:35.663Z,977.06
2019-03-10T01:43:35.583Z,977.05
2019-03-10T01:44:35.493Z,977.03
2019-03-10T01:45:35.409Z,977.00
2019-03-10T01:46:35.332Z,977.01
2019-03-10T01:47:35.251Z,977.01
2019-03-10T01:48:35.169Z,976.97
2019-03-10T01:49:35.086Z,977.00
2019-03-10T01:50:35.006Z,977.07
2019-03-10T01:51:34.921Z,977.03
2019-03-10T01:52:34.837Z,977.04
2019-03-10T01:53:34.756Z,977.05
2019-03-10T01:54:34.673Z,977.01
2019-03-10T01:55:34.591Z,976.95
2019-03-10T01:56:34.505Z,976.93
2019-03-10T01:57:34.426Z,976.92
2019-03-10T01:58:34.338Z,976.89
2019-03-10T01:59:34.274Z,976.81
2019-03-10T02:00:34.173Z,976.81
2019-03-10T02:01:34.098Z,976.79
2019-03-10T02:02:34.010Z,976.79
2019-03-10T02:03:33.926Z,976.74
2019-03-10T02:04:33.849Z,976.76
2019-03-10T02:05:33.763Z,976.71
2019-03-10T02:06:33.684Z,976.65
2019-03-10T02:07:33.607Z,976.63
2019-03-10T02:08:33.517Z,976.61
2019-03-10T02:09:33.432Z,976.59
2019-03-10T02:10:33.358Z,976.59
2019-03-10T02:11:33.271Z,976.56
2019-03-10T02:12:33.191Z,976.58
2019-03-10T02:13:33.105Z,976.58
2019-03-10T02:14:33.026Z,976.57
2019-03-10T02:15:32.943Z,976.55
2019-03-10T02:16:32.856Z,976.54
2019-03-10T02:17:32.773Z,976.54
2019-03-10T02:18:32.694Z,976.56
2019-03-10T02:19:32.612Z,976.55
2019-03-10T02:20:32.532Z,976.54
2019-03-10T02:21:32.493Z,976.51
2019-03-10T02:22:32.363Z,976.46
2019-03-10T02:23:32.279Z,976.47
2019-03-10T02:24:32.198Z,976.44
2019-03-10T02:25:32.120Z,976.39
2019-03-10T02:26:32.032Z,976.37
2019-03-10T02:27:31.952Z,976.35
2019-03-10T02:28:31.869Z,976.37
2019-03-10T02:29:31.785Z,976.35
2019-03-10T02:30:31.701Z,976.29
2019-03-10T02:31:31.621Z,976.34
2019-03-10T02:32:31.552Z,976.32
2019-03-10T02:33:31.457Z,976.32
2019-03-10T02:34:31.389Z,976.30
2019-03-10T02:35:31.291Z,976.33
2019-03-10T02:36:31.209Z,976.33
2019-03-10T02:37:31.128Z,976.38
2019-03-10T02:38:31.044Z,976.35
2019-03-10T02:39:30.960Z,976.28
2019-03-10T02:40:30.874Z,976.29
2019-03-10T02:41:30.795Z,976.25
2019-03-10T02:42:30.715Z,976.23
2019-03-10T02:43:30.630Z,976.16
2019-03-10T02:44:30.547Z,976.16
2019-03-10T02:45:30.482Z,976.13
2019-03-10T02:46:30.376Z,976.17
2019-03-10T02:47:30.303Z,976.15
2019-03-10T02:48:30.211Z,976.14
2019-03-10T02:49:30.134Z,976.12
2019-03-10T02:50:30.049Z,976.12
2019-03-10T02:51:29.972Z,976.09
2019-03-10T02:52:29.888Z,976.08
2019-03-10T02:53:29.809Z,976.06
2019-03-10T02:54:29.718Z,976.02
2019-03-10T02:55:29.636Z,976.05
2019-03-10T02:56:29.562Z,976.03
2019-03-10T02:57:29.471Z,976.09
2019-03-10T02:58:29.382Z,976.14
2019-03-10T02:59:29.306Z,976.18
2019-03-10T03:00:29.221Z,976.18
2019-03-10T03:01:29.145Z,976.19
2019-03-10T03:02:29.059Z,976.20
2019-03-10T03:03:28.979Z,976.19
2019-03-10T03:04:28.893Z,976.15
2019-03-10T03:05:28.812Z,976.13
2019-03-10T03:06:28.722Z,976.10
2019-03-10T03:07:28.645Z,976.08
2019-03-10T03:08:28.571Z,976.11
2019-03-10T03:09:28.482Z,976.17
2019-03-10T03:10:28.396Z,976.15
2019-03-10T03:11:28.319Z,976.17
2019-03-10T03:12:28.230Z,976.14
2019-03-10T03:13:28.150Z,976.11
2019-03-10T03:14:28.073Z,976.10
2019-03-10T03:15:28.006Z,976.05
2019-03-10T03:16:27.899Z,976.05
2019-03-10T03:17:27.817Z,976.08
2019-03-10T03:18:27.748Z,976.08
2019-03-10T03:19:27.652Z,976.07
2019-03-10T03:20:27.567Z,976.08
2019-03-10T03:21:41.731Z,976.09
2019-03-10T03:22:27.409Z,976.02
2019-03-10T03:23:27.333Z,976.05
2019-03-10T03:24:27.240Z,976.09
2019-03-10T03:25:27.179Z,976.13
2019-03-10T03:26:27.077Z,976.09
2019-03-10T03:27:26.990Z,976.11
2019-03-10T03:28:26.908Z,976.06
2019-03-10T03:29:26.828Z,976.03
2019-03-10T03:30:26.746Z,975.99
2019-03-10T03:31:26.663Z,975.95
2019-03-10T03:32:26.589Z,975.96
2019-03-10T03:33:26.560Z,975.93
2019-03-10T03:34:26.414Z,975.95
2019-03-10T03:35:26.343Z,975.94
2019-03-10T03:36:26.250Z,975.91
2019-03-10T03:37:26.171Z,975.86
2019-03-10T03:38:26.082Z,975.86
2019-03-10T03:39:26.002Z,975.85
2019-03-10T03:40:25.920Z,975.81
2019-03-10T03:41:25.841Z,975.78
2019-03-10T03:42:25.753Z,975.75
2019-03-10T03:43:25.667Z,975.74
2019-03-10T03:44:25.586Z,975.69
2019-03-10T03:45:25.512Z,975.69
2019-03-10T03:46:25.425Z,975.61
2019-03-10T03:47:25.340Z,975.63
2019-03-10T03:48:25.262Z,975.60
2019-03-10T03:49:25.199Z,975.57
2019-03-10T03:50:25.091Z,975.55
2019-03-10T03:51:25.011Z,975.52
2019-03-10T03:52:24.935Z,975.46
2019-03-10T03:53:24.846Z,975.47
2019-03-10T03:54:24.764Z,975.44
2019-03-10T03:55:24.686Z,975.38
2019-03-10T03:56:24.613Z,975.35
2019-03-10T03:57:24.521Z,975.40
2019-03-10T03:58:24.439Z,975.26
2019-03-10T03:59:24.356Z,975.29
2019-03-10T04:00:24.269Z,975.26
2019-03-10T04:01:24.194Z,975.24
2019-03-10T04:02:24.112Z,975.25
2019-03-10T04:03:24.026Z,975.19
2019-03-10T04:04:23.978Z,975.16
2019-03-10T04:05:23.863Z,975.11
2019-03-10T04:06:23.778Z,975.09
2019-03-10T04:07:23.699Z,975.09
2019-03-10T04:08:23.611Z,975.12
2019-03-10T04:09:23.531Z,975.14
2019-03-10T04:10:23.442Z,975.14
2019-03-10T04:11:23.365Z,975.11
2019-03-10T04:12:23.292Z,975.09
2019-03-10T04:13:23.208Z,975.06
2019-03-10T04:14:23.120Z,975.06
2019-03-10T04:15:23.038Z,975.08
2019-03-10T04:16:22.968Z,975.09
2019-03-10T04:17:22.877Z,975.08
2019-03-10T04:18:22.790Z,975.09
2019-03-10T04:19:22.708Z,975.09
2019-03-10T04:20:22.706Z,975.09
2019-03-10T04:21:22.548Z,975.03
2019-03-10T04:22:22.466Z,975.00
2019-03-10T04:23:22.379Z,974.98
2019-03-10T04:24:22.297Z,975.00
2019-03-10T04:25:22.237Z,974.94
2019-03-10T04:26:22.128Z,974.97
2019-03-10T04:27:22.049Z,974.95
2019-03-10T04:28:21.968Z,974.98
2019-03-10T04:29:21.965Z,975.04
2019-03-10T04:30:21.803Z,975.05
2019-03-10T04:31:21.726Z,975.08
2019-03-10T04:32:21.641Z,975.14
2019-03-10T04:33:21.569Z,975.12
2019-03-10T04:34:21.474Z,975.14
2019-03-10T04:35:21.393Z,975.14
2019-03-10T04:36:21.306Z,975.11
2019-03-10T04:37:21.231Z,975.09
2019-03-10T04:38:21.146Z,975.06
2019-03-10T04:39:21.056Z,975.08
2019-03-10T04:40:20.982Z,975.06
2019-03-10T04:41:20.894Z,975.06
2019-03-10T04:42:20.817Z,975.05
2019-03-10T04:43:20.732Z,975.02
2019-03-10T04:44:20.646Z,974.99
2019-03-10T04:45:20.570Z,974.95
2019-03-10T04:46:20.491Z,974.96
2019-03-10T04:47:20.398Z,974.94
2019-03-10T04:48:20.322Z,974.88
2019-03-10T04:49:20.236Z,974.86
2019-03-10T04:50:20.155Z,974.81
2019-03-10T04:51:20.075Z,974.80
2019-03-10T04:52:19.990Z,974.79
2019-03-10T04:53:19.907Z,974.75
2019-03-10T04:54:19.823Z,974.75
2019-03-10T04:55:19.741Z,974.76
2019-03-10T04:56:19.657Z,974.75
2019-03-10T04:57:19.578Z,974.75
2019-03-10T04:58:19.501Z,974.74
2019-03-10T04:59:19.409Z,974.70
2019-03-10T05:00:19.327Z,974.67
2019-03-10T05:01:19.249Z,974.68
2019-03-10T05:02:19.161Z,974.58
2019-03-10T05:03:19.084Z,974.54
2019-03-10T05:04:19.011Z,974.52
2019-03-10T05:05:18.927Z,974.48
2019-03-10T05:06:18.840Z,974.46
2019-03-10T05:07:18.755Z,974.40
2019-03-10T05:08:18.674Z,974.35
2019-03-10T05:09:18.589Z,974.39
2019-03-10T05:10:18.507Z,974.35
2019-03-10T05:11:18.428Z,974.34
2019-03-10T05:12:18.345Z,974.35
2019-03-10T05:13:18.260Z,974.36
2019-03-10T05:14:18.175Z,974.33
2019-03-10T05:15:18.146Z,974.31
2019-03-10T05:16:18.016Z,974.29
2019-03-10T05:17:17.933Z,974.32
2019-03-10T05:18:17.851Z,974.27
2019-03-10T05:19:17.769Z,974.28
2019-03-10T05:20:17.690Z,974.29
2019-03-10T05:21:17.604Z,974.27
2019-03-10T05:22:17.523Z,974.26
2019-03-10T05:23:17.438Z,974.24
2019-03-10T05:24:17.363Z,974.24
2019-03-10T05:25:17.273Z,974.20
2019-03-10T05:26:17.193Z,974.17
2019-03-10T05:27:17.111Z,974.13
2019-03-10T05:28:17.028Z,974.08
2019-03-10T05:29:16.948Z,974.04
2019-03-10T05:30:16.860Z,974.03
2019-03-10T05:31:16.785Z,973.94
2019-03-10T05:32:16.695Z,973.90
2019-03-10T05:33:16.617Z,973.85
2019-03-10T05:34:16.535Z,973.90
2019-03-10T05:35:16.451Z,973.86
2019-03-10T05:36:16.375Z,973.84
2019-03-10T05:37:16.288Z,973.84
2019-03-10T05:38:16.204Z,973.78
2019-03-10T05:39:16.122Z,973.76
2019-03-10T05:40:16.041Z,973.72
2019-03-10T05:41:15.956Z,973.67
2019-03-10T05:42:15.874Z,973.67
2019-03-10T05:43:15.790Z,973.64
2019-03-10T05:44:15.719Z,973.60
2019-03-10T05:45:15.628Z,973.55
2019-03-10T05:46:15.544Z,973.54
2019-03-10T05:47:15.455Z,973.52
2019-03-10T05:48:15.399Z,973.48
2019-03-10T05:49:15.300Z,973.38
2019-03-10T05:50:15.216Z,973.35
2019-03-10T05:51:15.137Z,973.35
2019-03-10T05:52:15.053Z,973.35
2019-03-10T05:53:14.964Z,973.35
2019-03-10T05:54:14.886Z,973.29
2019-03-10T05:55:14.801Z,973.32
2019-03-10T05:56:14.723Z,973.26
2019-03-10T05:57:14.643Z,973.29
2019-03-10T05:58:14.556Z,973.22
2019-03-10T05:59:14.474Z,973.24
2019-03-10T06:00:14.392Z,973.20
2019-03-10T06:01:14.308Z,973.23
2019-03-10T06:02:14.224Z,973.20
2019-03-10T06:03:14.138Z,973.15
2019-03-10T06:04:14.059Z,973.17
2019-03-10T06:05:13.977Z,973.13
2019-03-10T06:06:13.890Z,973.13
2019-03-10T06:07:13.815Z,973.13
2019-03-10T06:08:13.727Z,973.11
2019-03-10T06:09:13.641Z,973.13
2019-03-10T06:10:13.559Z,973.16
2019-03-10T06:11:13.479Z,973.12
2019-03-10T06:12:13.401Z,973.12
2019-03-10T06:13:13.312Z,973.14
2019-03-10T06:14:13.227Z,973.10
2019-03-10T06:15:13.144Z,973.14
2019-03-10T06:16:13.066Z,973.14
2019-03-10T06:17:12.985Z,973.10
2019-03-10T06:18:14.060Z,973.15
2019-03-10T06:19:12.814Z,973.10
2019-03-10T06:20:12.733Z,973.13
2019-03-10T06:21:12.650Z,973.02
2019-03-10T06:22:12.563Z,973.10
2019-03-10T06:23:12.482Z,973.07
2019-03-10T06:24:12.398Z,973.04
2019-03-10T06:25:12.314Z,973.04
2019-03-10T06:26:12.230Z,973.04
2019-03-10T06:27:12.149Z,972.99
2019-03-10T06:28:12.060Z,972.98
2019-03-10T06:29:11.983Z,973.06
2019-03-10T06:30:11.900Z,972.97
2019-03-10T06:31:11.811Z,972.96
2019-03-10T06:32:11.733Z,972.97
2019-03-10T06:33:11.645Z,972.97
2019-03-10T06:34:11.577Z,972.95
2019-03-10T06:35:11.476Z,972.90
2019-03-10T06:36:11.394Z,972.94
2019-03-10T06:37:11.320Z,972.90
2019-03-10T06:38:11.230Z,972.89
2019-03-10T06:39:11.151Z,972.83
2019-03-10T06:40:11.065Z,972.87
2019-03-10T06:41:10.981Z,972.81
2019-03-10T06:42:10.894Z,972.78
2019-03-10T06:43:10.808Z,972.76
2019-03-10T06:44:10.726Z,972.73
2019-03-10T06:45:10.641Z,972.74
2019-03-10T06:46:10.560Z,972.70
2019-03-10T06:47:10.469Z,972.69
2019-03-10T06:48:10.393Z,972.68
2019-03-10T06:49:10.304Z,972.68
2019-03-10T06:50:12.236Z,972.67
2019-03-10T06:51:10.139Z,972.63
2019-03-10T06:52:10.057Z,972.66
2019-03-10T06:53:09.973Z,972.67
2019-03-10T06:54:09.889Z,972.61
2019-03-10T06:55:09.803Z,972.58
2019-03-10T06:56:09.719Z,972.60
2019-03-10T06:57:09.633Z,972.61
2019-03-10T06:58:09.550Z,972.56
2019-03-10T06:59:09.474Z,972.54
2019-03-10T07:00:09.385Z,972.51
2019-03-10T07:01:09.301Z,972.50
2019-03-10T07:02:09.210Z,972.52
2019-03-10T07:03:09.131Z,972.44
2019-03-10T07:04:09.043Z,972.46
2019-03-10T07:05:08.969Z,972.43
2019-03-10T07:06:08.881Z,972.43
2019-03-10T07:07:08.794Z,972.37
2019-03-10T07:08:08.710Z,972.40
2019-03-10T07:09:08.630Z,972.36
2019-03-10T07:10:08.544Z,972.30
2019-03-10T07:11:08.459Z,972.33
2019-03-10T07:12:08.376Z,972.33
2019-03-10T07:13:08.294Z,972.28
2019-03-10T07:14:08.215Z,972.24
2019-03-10T07:15:08.124Z,972.23
2019-03-10T07:16:08.040Z,972.20
2019-03-10T07:17:07.959Z,972.19
2019-03-10T07:18:07.876Z,972.12
2019-03-10T07:19:07.785Z,972.10
2019-03-10T07:20:07.707Z,972.08
2019-03-10T07:21:07.615Z,972.07
2019-03-10T07:22:07.535Z,972.06
2019-03-10T07:23:07.455Z,972.06
2019-03-10T07:24:07.370Z,972.00
2019-03-10T07:25:07.283Z,971.99
2019-03-10T07:26:07.206Z,971.98
2019-03-10T07:27:07.117Z,971.99
2019-03-10T07:28:07.033Z,971.97
2019-03-10T07:29:06.951Z,971.97
2019-03-10T07:30:06.869Z,972.00
2019-03-10T07:31:06.781Z,972.00
2019-03-10T07:32:08.925Z,971.96
2019-03-10T07:33:06.615Z,971.99
2019-03-10T07:34:06.531Z,971.98
2019-03-10T07:35:06.452Z,972.01
2019-03-10T07:36:06.362Z,971.98
2019-03-10T07:37:06.275Z,971.94
2019-03-10T07:38:06.197Z,971.94
2019-03-10T07:39:06.112Z,971.90
2019-03-10T07:40:06.025Z,971.85
2019-03-10T07:41:05.947Z,971.84
2019-03-10T07:42:05.865Z,971.86
2019-03-10T07:43:05.775Z,971.78
2019-03-10T07:44:05.691Z,971.79
2019-03-10T07:45:05.610Z,971.79
2019-03-10T07:46:05.526Z,971.76
2019-03-10T07:47:05.449Z,971.71
2019-03-10T07:48:05.358Z,971.70
2019-03-10T07:49:05.279Z,971.72
2019-03-10T07:50:05.188Z,971.64
2019-03-10T07:51:05.106Z,971.61
2019-03-10T07:52:05.020Z,971.64
2019-03-10T07:53:04.939Z,971.66
2019-03-10T07:54:04.855Z,971.68
2019-03-10T07:55:04.770Z,971.68
2019-03-10T07:56:04.684Z,971.66
2019-03-10T07:57:04.608Z,971.57
2019-03-10T07:58:04.521Z,971.56
2019-03-10T07:59:04.438Z,971.56
2019-03-10T08:00:04.357Z,971.62
2019-03-10T08:01:04.268Z,971.69
2019-03-10T08:02:04.187Z,971.71
2019-03-10T08:03:04.101Z,971.64
2019-03-10T08:04:04.024Z,971.63
2019-03-10T08:05:03.930Z,971.64
2019-03-10T08:06:03.858Z,971.51
2019-03-10T08:07:03.771Z,971.47
2019-03-10T08:08:03.682Z,971.57
2019-03-10T08:09:03.598Z,971.64
2019-03-10T08:10:03.522Z,971.54
2019-03-10T08:11:03.435Z,971.60
2019-03-10T08:12:03.353Z,971.59
2019-03-10T08:13:03.293Z,971.57
2019-03-10T08:14:03.185Z,971.36
2019-03-10T08:15:03.104Z,971.33
2019-03-10T08:16:03.019Z,971.39
2019-03-10T08:17:02.934Z,971.51
2019-03-10T08:18:02.852Z,971.59
2019-03-10T08:19:02.769Z,971.61
2019-03-10T08:20:02.683Z,971.54
2019-03-10T08:21:02.602Z,971.26
2019-03-10T08:22:02.517Z,971.11
2019-03-10T08:23:02.467Z,971.05
2019-03-10T08:24:02.348Z,970.99
2019-03-10T08:25:02.267Z,971.07
2019-03-10T08:26:02.182Z,971.11
2019-03-10T08:27:02.103Z,971.08
2019-03-10T08:28:02.213Z,971.06
2019-03-10T08:29:01.933Z,970.93
2019-03-10T08:30:01.847Z,970.89
2019-03-10T08:31:01.757Z,970.83
2019-03-10T08:32:01.684Z,970.76
2019-03-10T08:33:01.602Z,970.73
2019-03-10T08:34:01.519Z,970.70
2019-03-10T08:35:01.453Z,970.66
2019-03-10T08:36:01.347Z,970.64
2019-03-10T08:37:01.265Z,970.67
2019-03-10T08:38:01.179Z,970.68
2019-03-10T08:39:01.094Z,970.70
2019-03-10T08:40:01.015Z,970.61
2019-03-10T08:41:00.933Z,970.58
2019-03-10T08:42:00.849Z,970.56
2019-03-10T08:43:00.765Z,970.52
2019-03-10T08:44:00.716Z,970.49
2019-03-10T08:45:00.598Z,970.51
2019-03-10T08:46:00.515Z,970.50
2019-03-10T08:47:00.437Z,970.52
2019-03-10T08:48:00.342Z,970.53
2019-03-10T08:49:00.266Z,970.50
2019-03-10T08:50:00.289Z,970.56
2019-03-10T08:51:00.098Z,970.50
2019-03-10T08:52:00.016Z,970.41
2019-03-10T08:52:59.932Z,970.40
2019-03-10T08:53:59.851Z,970.41
2019-03-10T08:54:59.779Z,970.43
2019-03-10T08:55:59.685Z,970.43
2019-03-10T08:56:59.598Z,970.37
2019-03-10T08:57:59.516Z,970.42
2019-03-10T08:58:59.438Z,970.36
2019-03-10T08:59:59.345Z,970.39
2019-03-10T09:00:59.269Z,970.42
2019-03-10T09:01:59.185Z,970.45
2019-03-10T09:02:59.101Z,970.53
2019-03-10T09:03:59.021Z,970.55
2019-03-10T09:04:58.933Z,970.52
2019-03-10T09:05:58.852Z,970.53
2019-03-10T09:06:58.772Z,970.55
2019-03-10T09:07:58.683Z,970.50
2019-03-10T09:08:58.597Z,970.48
2019-03-10T09:09:58.519Z,970.48
2019-03-10T09:10:58.437Z,970.48
2019-03-10T09:11:58.355Z,970.55
2019-03-10T09:12:58.268Z,970.45
2019-03-10T09:13:58.182Z,970.54
2019-03-10T09:14:58.105Z,970.49
2019-03-10T09:15:58.017Z,970.41
2019-03-10T09:16:57.932Z,970.40
2019-03-10T09:17:57.850Z,970.42
2019-03-10T09:18:57.768Z,970.37
2019-03-10T09:19:57.682Z,970.33
2019-03-10T09:20:57.608Z,970.33
2019-03-10T09:22:00.062Z,970.34
2019-03-10T09:22:57.446Z,970.34
2019-03-10T09:23:57.356Z,970.29
2019-03-10T09:24:57.274Z,970.29
2019-03-10T09:25:57.181Z,970.26
2019-03-10T09:26:57.101Z,970.19
2019-03-10T09:27:57.018Z,970.17
2019-03-10T09:28:56.942Z,970.14
2019-03-10T09:29:56.852Z,970.13
2019-03-10T09:30:56.771Z,970.11
2019-03-10T09:31:56.690Z,970.16
2019-03-10T09:32:56.601Z,970.13
2019-03-10T09:33:56.523Z,970.12
2019-03-10T09:34:56.445Z,970.12
2019-03-10T09:35:56.369Z,970.12
2019-03-10T09:36:56.280Z,970.12
2019-03-10T09:37:56.203Z,970.17
2019-03-10T09:38:56.108Z,970.16
2019-03-10T09:39:56.024Z,970.06
2019-03-10T09:40:55.943Z,970.07
2019-03-10T09:41:55.858Z,970.05
2019-03-10T09:42:55.778Z,969.99
2019-03-10T09:43:55.692Z,969.93
2019-03-10T09:44:55.612Z,969.91
2019-03-10T09:45:55.528Z,969.88
2019-03-10T09:46:55.446Z,969.89
2019-03-10T09:47:55.357Z,969.83
2019-03-10T09:48:55.279Z,969.83
2019-03-10T09:49:55.189Z,969.75
2019-03-10T09:50:55.113Z,969.76
2019-03-10T09:51:55.033Z,969.71
2019-03-10T09:52:54.949Z,969.74
2019-03-10T09:53:54.868Z,969.72
2019-03-10T09:54:54.783Z,969.77
2019-03-10T09:55:54.702Z,969.72
2019-03-10T09:56:54.621Z,969.78
2019-03-10T09:57:54.533Z,969.76
2019-03-10T09:58:54.450Z,969.73
2019-03-10T09:59:54.375Z,969.74
2019-03-10T10:00:54.288Z,969.68
2019-03-10T10:01:54.206Z,969.66
2019-03-10T10:02:54.129Z,969.69
2019-03-10T10:03:54.039Z,969.63
2019-03-10T10:04:53.962Z,969.63
2019-03-10T10:05:53.873Z,969.65
2019-03-10T10:06:53.790Z,969.63
2019-03-10T10:07:53.707Z,969.63
2019-03-10T10:08:53.625Z,969.62
2019-03-10T10:09:53.542Z,969.57
2019-03-10T10:10:53.461Z,969.54
2019-03-10T10:11:53.375Z,969.52
2019-03-10T10:12:53.295Z,969.53
2019-03-10T10:13:53.210Z,969.46
2019-03-10T10:14:53.128Z,969.51
2019-03-10T10:15:53.047Z,969.46
2019-03-10T10:16:52.962Z,969.44
2019-03-10T10:17:52.881Z,969.47
2019-03-10T10:18:52.803Z,969.41
2019-03-10T10:19:52.718Z,969.39
2019-03-10T10:20:52.630Z,969.36
2019-03-10T10:21:52.548Z,969.34
2019-03-10T10:22:52.468Z,969.34
2019-03-10T10:23:52.387Z,969.36
2019-03-10T10:24:52.301Z,969.34
2019-03-10T10:25:52.225Z,969.25
2019-03-10T10:26:52.141Z,969.25
2019-03-10T10:27:52.054Z,969.28
2019-03-10T10:28:51.974Z,969.25
2019-03-10T10:29:51.892Z,969.22
2019-03-10T10:30:51.810Z,969.12
2019-03-10T10:31:51.729Z,969.12
2019-03-10T10:32:53.562Z,969.09
2019-03-10T10:33:51.563Z,969.03
2019-03-10T10:34:51.492Z,969.00
2019-03-10T10:35:51.393Z,969.01
2019-03-10T10:36:51.315Z,968.96
2019-03-10T10:37:51.236Z,968.94
2019-03-10T10:38:51.145Z,968.92
2019-03-10T10:39:51.089Z,968.81
2019-03-10T10:40:50.991Z,968.84
2019-03-10T10:41:50.906Z,968.85
2019-03-10T10:42:50.823Z,968.84
2019-03-10T10:43:50.744Z,968.93
2019-03-10T10:44:50.660Z,968.90
2019-03-10T10:45:50.581Z,968.90
2019-03-10T10:46:50.494Z,968.78
2019-03-10T10:47:50.415Z,968.83
2019-03-10T10:48:50.349Z,968.73
2019-03-10T10:49:50.251Z,968.78
2019-03-10T10:50:50.173Z,968.74
2019-03-10T10:51:50.137Z,968.82
2019-03-10T10:52:50.020Z,968.76
2019-03-10T10:53:49.939Z,968.66
2019-03-10T10:54:49.845Z,968.79
2019-03-10T10:55:49.758Z,968.60
2019-03-10T10:56:49.681Z,968.70
2019-03-10T10:57:49.601Z,968.75
2019-03-10T10:58:49.520Z,968.56
2019-03-10T10:59:49.438Z,968.57
2019-03-10T11:00:49.357Z,968.55
2019-03-10T11:01:49.276Z,968.54
2019-03-10T11:02:49.192Z,968.51
2019-03-10T11:03:49.116Z,968.49
2019-03-10T11:04:49.032Z,968.48
2019-03-10T11:05:48.949Z,968.49
2019-03-10T11:06:48.869Z,968.53
2019-03-10T11:07:48.792Z,968.51
2019-03-10T11:08:48.714Z,968.51
2019-03-10T11:09:48.634Z,968.50
2019-03-10T11:10:48.552Z,968.47
2019-03-10T11:11:48.472Z,968.54
2019-03-10T11:12:48.392Z,968.47
2019-03-10T11:13:48.313Z,968.38
2019-03-10T11:14:48.278Z,968.34
2019-03-10T11:15:48.162Z,968.40
2019-03-10T11:16:48.069Z,968.34
2019-03-10T11:17:47.989Z,968.38
2019-03-10T11:18:47.918Z,968.36
2019-03-10T11:19:47.830Z,968.26
2019-03-10T11:20:47.754Z,968.35
2019-03-10T11:21:47.668Z,968.33
2019-03-10T11:22:47.587Z,968.30
2019-03-10T11:23:47.508Z,968.28
2019-03-10T11:24:47.429Z,968.21
2019-03-10T11:25:47.346Z,968.22
2019-03-10T11:26:47.264Z,968.21
2019-03-10T11:27:47.188Z,968.20
2019-03-10T11:28:47.107Z,968.11
2019-03-10T11:29:47.020Z,968.11
2019-03-10T11:30:46.945Z,968.04
2019-03-10T11:31:46.867Z,968.03
2019-03-10T11:32:46.783Z,968.00
2019-03-10T11:33:46.701Z,967.86
2019-03-10T11:34:46.622Z,967.84
2019-03-10T11:35:46.540Z,967.93
2019-03-10T11:36:46.490Z,967.84
2019-03-10T11:37:46.376Z,967.83
2019-03-10T11:38:46.291Z,967.82
2019-03-10T11:39:46.218Z,967.83
2019-03-10T11:40:46.136Z,967.97
2019-03-10T11:41:47.917Z,967.86
2019-03-10T11:42:45.978Z,967.76
2019-03-10T11:43:45.894Z,967.90
2019-03-10T11:44:45.813Z,967.81
2019-03-10T11:45:45.731Z,967.79
2019-03-10T11:46:45.646Z,967.77
2019-03-10T11:47:45.570Z,967.78
2019-03-10T11:48:45.493Z,967.69
2019-03-10T11:49:45.407Z,967.67
2019-03-10T11:50:45.325Z,967.72
2019-03-10T11:51:45.249Z,967.66
2019-03-10T11:52:45.163Z,967.68
2019-03-10T11:53:45.085Z,967.56
2019-03-10T11:54:45.001Z,967.49
2019-03-10T11:55:44.920Z,967.52
2019-03-10T11:56:44.840Z,967.57
2019-03-10T11:57:44.755Z,967.51
2019-03-10T11:58:44.703Z,967.53
2019-03-10T11:59:44.599Z,967.62
2019-03-10T12:00:44.522Z,967.50
2019-03-10T12:01:44.443Z,967.54
2019-03-10T12:02:44.356Z,967.49
2019-03-10T12:03:44.277Z,967.80
2019-03-10T12:04:44.199Z,967.37
2019-03-10T12:05:44.119Z,967.44
2019-03-10T12:06:44.043Z,967.46
2019-03-10T12:07:43.959Z,967.32
2019-03-10T12:08:43.888Z,967.46
2019-03-10T12:09:43.804Z,967.39
2019-03-10T12:10:43.725Z,967.26
2019-03-10T12:11:43.654Z,967.24
2019-03-10T12:12:43.575Z,967.33
2019-03-10T12:13:43.487Z,967.35
2019-03-10T12:14:43.418Z,967.30
2019-03-10T12:15:43.372Z,967.26
2019-03-10T12:16:43.265Z,967.06
2019-03-10T12:17:43.194Z,967.10
2019-03-10T12:18:43.122Z,967.10
2019-03-10T12:19:43.047Z,967.19
2019-03-10T12:20:42.970Z,967.22
2019-03-10T12:21:42.899Z,966.92
2019-03-10T12:22:42.843Z,967.08
2019-03-10T12:23:42.760Z,967.10
2019-03-10T12:24:42.688Z,966.97
2019-03-10T12:25:42.614Z,966.93
2019-03-10T12:26:42.543Z,967.00
2019-03-10T12:27:42.479Z,966.98